sensor_id;sensor_type;location;lat;lon;timestamp;temperature;humidity
36444;DHT22;24692;45.642;13.806;2022-09-02T00:00:51;20.20;99.90
36444;DHT22;24692;45.642;13.806;2022-09-02T00:03:18;20.20;99.90
36444;DHT22;24692;45.642;13.806;2022-09-02T00:05:44;20.20;99.90
36444;DHT22;24692;45.642;13.806;2022-09-02T00:08:11;20.10;99.90
36444;DHT22;24692;45.642;13.806;2022-09-02T00:10:39;20.10;99.90
36444;DHT22;24692;45.642;13.806;2022-09-02T00:13:08;20.10;99.90
36444;DHT22;24692;45.642;13.806;2022-09-02T00:15:34;20.10;99.90
36444;DHT22;24692;45.642;13.806;2022-09-02T00:18:00;20.10;99.90
36444;DHT22;24692;45.642;13.806;2022-09-02T00:20:27;20.00;99.90
36444;DHT22;24692;45.642;13.806;2022-09-02T00:22:53;20.00;99.90
36444;DHT22;24692;45.642;13.806;2022-09-02T00:25:19;20.00;99.90
36444;DHT22;24692;45.642;13.806;2022-09-02T00:27:45;20.00;99.90
36444;DHT22;24692;45.642;13.806;2022-09-02T00:30:11;20.00;99.90
36444;DHT22;24692;45.642;13.806;2022-09-02T00:32:37;19.90;99.90
36444;DHT22;24692;45.642;13.806;2022-09-02T00:35:03;19.90;99.90
36444;DHT22;24692;45.642;13.806;2022-09-02T00:37:30;19.90;99.90
36444;DHT22;24692;45.642;13.806;2022-09-02T00:39:55;19.90;99.90
36444;DHT22;24692;45.642;13.806;2022-09-02T00:42:23;19.90;99.90
36444;DHT22;24692;45.642;13.806;2022-09-02T00:44:49;20.00;99.90
36444;DHT22;24692;45.642;13.806;2022-09-02T00:47:15;20.00;99.90
36444;DHT22;24692;45.642;13.806;2022-09-02T00:49:44;20.00;99.90
36444;DHT22;24692;45.642;13.806;2022-09-02T00:52:22;20.00;99.90
36444;DHT22;24692;45.642;13.806;2022-09-02T00:54:58;19.90;99.90
36444;DHT22;24692;45.642;13.806;2022-09-02T00:57:29;19.90;99.90
36444;DHT22;24692;45.642;13.806;2022-09-02T01:02:31;19.80;99.90
36444;DHT22;24692;45.642;13.806;2022-09-02T01:05:00;19.80;99.90
36444;DHT22;24692;45.642;13.806;2022-09-02T01:07:30;19.80;99.90
36444;DHT22;24692;45.642;13.806;2022-09-02T01:09:59;19.70;99.90
36444;DHT22;24692;45.642;13.806;2022-09-02T01:12:25;19.70;99.90
36444;DHT22;24692;45.642;13.806;2022-09-02T01:14:52;19.70;99.90
36444;DHT22;24692;45.642;13.806;2022-09-02T01:17:18;19.70;99.90
36444;DHT22;24692;45.642;13.806;2022-09-02T01:19:48;19.70;99.90
36444;DHT22;24692;45.642;13.806;2022-09-02T01:22:25;19.70;99.90
36444;DHT22;24692;45.642;13.806;2022-09-02T01:24:51;19.70;99.90
36444;DHT22;24692;45.642;13.806;2022-09-02T01:27:19;19.60;99.90
36444;DHT22;24692;45.642;13.806;2022-09-02T01:29:53;19.60;99.90
36444;DHT22;24692;45.642;13.806;2022-09-02T01:32:20;19.60;99.90
36444;DHT22;24692;45.642;13.806;2022-09-02T01:34:47;19.60;99.90
36444;DHT22;24692;45.642;13.806;2022-09-02T01:37:13;19.60;99.90
36444;DHT22;24692;45.642;13.806;2022-09-02T01:39:39;19.60;99.90
36444;DHT22;24692;45.642;13.806;2022-09-02T01:42:05;19.60;99.90
36444;DHT22;24692;45.642;13.806;2022-09-02T01:44:32;19.60;99.90
36444;DHT22;24692;45.642;13.806;2022-09-02T01:46:58;19.60;99.90
36444;DHT22;24692;45.642;13.806;2022-09-02T01:49:23;19.60;99.90
36444;DHT22;24692;45.642;13.806;2022-09-02T01:51:53;19.60;99.90
36444;DHT22;24692;45.642;13.806;2022-09-02T01:54:19;19.60;99.90
36444;DHT22;24692;45.642;13.806;2022-09-02T01:56:45;19.70;99.90
36444;DHT22;24692;45.642;13.806;2022-09-02T01:59:10;19.70;99.90
36444;DHT22;24692;45.642;13.806;2022-09-02T02:01:42;19.70;99.90
36444;DHT22;24692;45.642;13.806;2022-09-02T02:04:09;19.60;99.90
36444;DHT22;24692;45.642;13.806;2022-09-02T02:06:34;19.60;99.90
36444;DHT22;24692;45.642;13.806;2022-09-02T02:09:04;19.60;99.90
36444;DHT22;24692;45.642;13.806;2022-09-02T02:11:29;19.60;99.90
36444;DHT22;24692;45.642;13.806;2022-09-02T02:13:55;19.50;99.90
36444;DHT22;24692;45.642;13.806;2022-09-02T02:16:20;19.50;99.90
36444;DHT22;24692;45.642;13.806;2022-09-02T02:18:46;19.50;99.90
36444;DHT22;24692;45.642;13.806;2022-09-02T02:21:12;19.50;99.90
36444;DHT22;24692;45.642;13.806;2022-09-02T02:23:38;19.60;99.90
36444;DHT22;24692;45.642;13.806;2022-09-02T02:26:04;19.50;99.90
36444;DHT22;24692;45.642;13.806;2022-09-02T02:28:30;19.50;99.90
36444;DHT22;24692;45.642;13.806;2022-09-02T02:30:55;19.50;99.90
36444;DHT22;24692;45.642;13.806;2022-09-02T02:33:22;19.50;99.90
36444;DHT22;24692;45.642;13.806;2022-09-02T02:35:47;19.50;99.90
36444;DHT22;24692;45.642;13.806;2022-09-02T02:38:13;19.50;99.90
36444;DHT22;24692;45.642;13.806;2022-09-02T02:40:40;19.50;99.90
36444;DHT22;24692;45.642;13.806;2022-09-02T02:43:05;19.60;99.90
36444;DHT22;24692;45.642;13.806;2022-09-02T02:45:31;19.50;99.90
36444;DHT22;24692;45.642;13.806;2022-09-02T02:47:57;19.50;99.90
36444;DHT22;24692;45.642;13.806;2022-09-02T02:50:24;19.50;99.90
36444;DHT22;24692;45.642;13.806;2022-09-02T02:52:50;19.50;99.90
36444;DHT22;24692;45.642;13.806;2022-09-02T02:55:17;19.50;99.90
36444;DHT22;24692;45.642;13.806;2022-09-02T02:57:44;19.50;99.90
36444;DHT22;24692;45.642;13.806;2022-09-02T03:00:16;19.60;99.90
36444;DHT22;24692;45.642;13.806;2022-09-02T03:02:42;19.60;99.90
36444;DHT22;24692;45.642;13.806;2022-09-02T03:05:09;19.60;99.90
36444;DHT22;24692;45.642;13.806;2022-09-02T03:07:35;19.50;99.90
36444;DHT22;24692;45.642;13.806;2022-09-02T03:10:02;19.50;99.90
36444;DHT22;24692;45.642;13.806;2022-09-02T03:12:28;19.40;99.90
36444;DHT22;24692;45.642;13.806;2022-09-02T03:14:56;19.40;99.90
36444;DHT22;24692;45.642;13.806;2022-09-02T03:17:22;19.40;99.90
36444;DHT22;24692;45.642;13.806;2022-09-02T03:19:48;19.50;99.90
36444;DHT22;24692;45.642;13.806;2022-09-02T03:22:15;19.40;99.90
36444;DHT22;24692;45.642;13.806;2022-09-02T03:24:41;19.40;99.90
36444;DHT22;24692;45.642;13.806;2022-09-02T03:27:07;19.40;99.90
36444;DHT22;24692;45.642;13.806;2022-09-02T03:29:32;19.40;99.90
36444;DHT22;24692;45.642;13.806;2022-09-02T03:31:58;19.30;99.90
36444;DHT22;24692;45.642;13.806;2022-09-02T03:34:25;19.30;99.90
36444;DHT22;24692;45.642;13.806;2022-09-02T03:36:51;19.20;99.90
36444;DHT22;24692;45.642;13.806;2022-09-02T03:39:16;19.20;99.90
36444;DHT22;24692;45.642;13.806;2022-09-02T03:41:42;19.20;99.90
36444;DHT22;24692;45.642;13.806;2022-09-02T03:44:09;19.20;99.90
36444;DHT22;24692;45.642;13.806;2022-09-02T03:46:35;19.20;99.90
36444;DHT22;24692;45.642;13.806;2022-09-02T03:49:02;19.20;99.90
36444;DHT22;24692;45.642;13.806;2022-09-02T03:51:28;19.20;99.90
36444;DHT22;24692;45.642;13.806;2022-09-02T03:53:54;19.20;99.90
36444;DHT22;24692;45.642;13.806;2022-09-02T03:56:20;19.20;99.90
36444;DHT22;24692;45.642;13.806;2022-09-02T03:58:48;19.20;99.90
36444;DHT22;24692;45.642;13.806;2022-09-02T04:01:16;19.20;99.90
36444;DHT22;24692;45.642;13.806;2022-09-02T04:03:43;19.20;99.90
36444;DHT22;24692;45.642;13.806;2022-09-02T04:06:13;19.20;99.90
36444;DHT22;24692;45.642;13.806;2022-09-02T04:08:40;19.20;99.90
36444;DHT22;24692;45.642;13.806;2022-09-02T04:11:16;19.10;99.90
36444;DHT22;24692;45.642;13.806;2022-09-02T04:13:43;19.20;99.90
36444;DHT22;24692;45.642;13.806;2022-09-02T04:16:11;19.20;99.90
36444;DHT22;24692;45.642;13.806;2022-09-02T04:18:37;19.20;99.90
36444;DHT22;24692;45.642;13.806;2022-09-02T04:21:02;19.20;99.90
36444;DHT22;24692;45.642;13.806;2022-09-02T04:23:29;19.20;99.90
36444;DHT22;24692;45.642;13.806;2022-09-02T04:25:54;19.20;99.90
36444;DHT22;24692;45.642;13.806;2022-09-02T04:28:20;19.10;99.90
36444;DHT22;24692;45.642;13.806;2022-09-02T04:30:46;19.10;99.90
36444;DHT22;24692;45.642;13.806;2022-09-02T04:33:12;19.10;99.90
36444;DHT22;24692;45.642;13.806;2022-09-02T04:35:45;19.10;99.90
36444;DHT22;24692;45.642;13.806;2022-09-02T04:38:13;19.20;99.90
36444;DHT22;24692;45.642;13.806;2022-09-02T04:40:40;19.20;99.90
36444;DHT22;24692;45.642;13.806;2022-09-02T04:43:06;19.20;99.90
36444;DHT22;24692;45.642;13.806;2022-09-02T04:45:32;19.20;99.90
36444;DHT22;24692;45.642;13.806;2022-09-02T04:47:58;19.20;99.90
36444;DHT22;24692;45.642;13.806;2022-09-02T04:50:23;19.20;99.90
36444;DHT22;24692;45.642;13.806;2022-09-02T04:52:49;19.20;99.90
36444;DHT22;24692;45.642;13.806;2022-09-02T04:55:15;19.20;99.90
36444;DHT22;24692;45.642;13.806;2022-09-02T04:57:41;19.10;99.90
36444;DHT22;24692;45.642;13.806;2022-09-02T05:00:07;19.10;99.90
36444;DHT22;24692;45.642;13.806;2022-09-02T05:02:34;19.00;99.90
36444;DHT22;24692;45.642;13.806;2022-09-02T05:05:00;19.10;99.90
36444;DHT22;24692;45.642;13.806;2022-09-02T05:07:25;19.10;99.90
36444;DHT22;24692;45.642;13.806;2022-09-02T05:09:58;19.10;99.90
36444;DHT22;24692;45.642;13.806;2022-09-02T05:12:24;19.20;99.90
36444;DHT22;24692;45.642;13.806;2022-09-02T05:14:53;19.10;99.90
36444;DHT22;24692;45.642;13.806;2022-09-02T05:17:20;19.20;99.90
36444;DHT22;24692;45.642;13.806;2022-09-02T05:19:45;19.20;99.90
36444;DHT22;24692;45.642;13.806;2022-09-02T05:22:11;19.20;99.90
36444;DHT22;24692;45.642;13.806;2022-09-02T05:24:37;19.30;99.90
36444;DHT22;24692;45.642;13.806;2022-09-02T05:27:03;19.30;99.90
36444;DHT22;24692;45.642;13.806;2022-09-02T05:29:28;19.40;99.90
36444;DHT22;24692;45.642;13.806;2022-09-02T05:31:54;19.40;99.90
36444;DHT22;24692;45.642;13.806;2022-09-02T05:34:20;19.50;99.90
36444;DHT22;24692;45.642;13.806;2022-09-02T05:36:46;19.50;99.90
36444;DHT22;24692;45.642;13.806;2022-09-02T05:39:12;19.50;99.90
36444;DHT22;24692;45.642;13.806;2022-09-02T05:41:38;19.60;99.90
36444;DHT22;24692;45.642;13.806;2022-09-02T05:44:05;19.80;99.90
36444;DHT22;24692;45.642;13.806;2022-09-02T05:46:31;19.80;99.90
36444;DHT22;24692;45.642;13.806;2022-09-02T05:48:57;19.90;99.90
36444;DHT22;24692;45.642;13.806;2022-09-02T05:51:38;19.90;99.90
36444;DHT22;24692;45.642;13.806;2022-09-02T05:54:13;19.90;99.90
36444;DHT22;24692;45.642;13.806;2022-09-02T05:56:40;20.00;99.90
36444;DHT22;24692;45.642;13.806;2022-09-02T05:59:06;20.00;99.90
36444;DHT22;24692;45.642;13.806;2022-09-02T06:01:34;20.00;99.90
36444;DHT22;24692;45.642;13.806;2022-09-02T06:04:00;20.10;99.90
36444;DHT22;24692;45.642;13.806;2022-09-02T06:06:30;20.10;99.90
36444;DHT22;24692;45.642;13.806;2022-09-02T06:08:57;20.20;99.90
36444;DHT22;24692;45.642;13.806;2022-09-02T06:11:23;20.20;99.90
36444;DHT22;24692;45.642;13.806;2022-09-02T06:13:50;20.20;99.90
36444;DHT22;24692;45.642;13.806;2022-09-02T06:16:19;20.20;99.90
36444;DHT22;24692;45.642;13.806;2022-09-02T06:18:46;20.30;99.90
36444;DHT22;24692;45.642;13.806;2022-09-02T06:21:12;20.20;99.90
36444;DHT22;24692;45.642;13.806;2022-09-02T06:23:39;20.20;99.90
36444;DHT22;24692;45.642;13.806;2022-09-02T06:26:06;20.30;99.90
36444;DHT22;24692;45.642;13.806;2022-09-02T06:28:32;20.40;99.90
36444;DHT22;24692;45.642;13.806;2022-09-02T06:30:58;20.40;99.90
36444;DHT22;24692;45.642;13.806;2022-09-02T06:33:24;20.40;99.90
36444;DHT22;24692;45.642;13.806;2022-09-02T06:35:50;20.50;99.90
36444;DHT22;24692;45.642;13.806;2022-09-02T06:38:16;20.50;99.90
36444;DHT22;24692;45.642;13.806;2022-09-02T06:40:52;20.70;99.90
36444;DHT22;24692;45.642;13.806;2022-09-02T06:43:18;20.80;99.90
36444;DHT22;24692;45.642;13.806;2022-09-02T06:45:44;20.80;99.90
36444;DHT22;24692;45.642;13.806;2022-09-02T06:48:10;20.90;99.90
36444;DHT22;24692;45.642;13.806;2022-09-02T06:50:41;21.00;99.90
36444;DHT22;24692;45.642;13.806;2022-09-02T06:53:06;21.00;99.90
36444;DHT22;24692;45.642;13.806;2022-09-02T06:55:38;21.00;99.90
36444;DHT22;24692;45.642;13.806;2022-09-02T06:58:03;21.10;99.90
36444;DHT22;24692;45.642;13.806;2022-09-02T07:00:29;21.20;99.90
36444;DHT22;24692;45.642;13.806;2022-09-02T07:02:57;21.30;99.90
36444;DHT22;24692;45.642;13.806;2022-09-02T07:05:41;21.30;99.90
36444;DHT22;24692;45.642;13.806;2022-09-02T07:08:07;21.40;99.90
36444;DHT22;24692;45.642;13.806;2022-09-02T07:10:37;21.40;99.90
36444;DHT22;24692;45.642;13.806;2022-09-02T07:13:03;21.50;99.90
36444;DHT22;24692;45.642;13.806;2022-09-02T07:15:44;21.60;99.90
36444;DHT22;24692;45.642;13.806;2022-09-02T07:18:09;21.50;99.90
36444;DHT22;24692;45.642;13.806;2022-09-02T07:20:35;21.50;99.90
36444;DHT22;24692;45.642;13.806;2022-09-02T07:23:00;21.60;99.90
36444;DHT22;24692;45.642;13.806;2022-09-02T07:25:26;21.70;99.90
36444;DHT22;24692;45.642;13.806;2022-09-02T07:27:52;21.80;99.90
36444;DHT22;24692;45.642;13.806;2022-09-02T07:30:19;21.90;99.90
36444;DHT22;24692;45.642;13.806;2022-09-02T07:32:44;22.00;99.90
36444;DHT22;24692;45.642;13.806;2022-09-02T07:35:10;22.10;99.90
36444;DHT22;24692;45.642;13.806;2022-09-02T07:37:36;22.20;99.90
36444;DHT22;24692;45.642;13.806;2022-09-02T07:40:04;22.30;99.90
36444;DHT22;24692;45.642;13.806;2022-09-02T07:42:30;22.50;99.90
36444;DHT22;24692;45.642;13.806;2022-09-02T07:44:56;22.70;99.90
36444;DHT22;24692;45.642;13.806;2022-09-02T07:47:22;22.80;99.90
36444;DHT22;24692;45.642;13.806;2022-09-02T07:49:47;23.10;99.90
36444;DHT22;24692;45.642;13.806;2022-09-02T07:52:13;23.40;99.90
36444;DHT22;24692;45.642;13.806;2022-09-02T07:54:39;23.80;99.90
36444;DHT22;24692;45.642;13.806;2022-09-02T07:57:04;24.10;99.90
36444;DHT22;24692;45.642;13.806;2022-09-02T07:59:31;24.20;99.90
36444;DHT22;24692;45.642;13.806;2022-09-02T08:01:56;24.80;99.90
36444;DHT22;24692;45.642;13.806;2022-09-02T08:04:23;25.40;99.90
36444;DHT22;24692;45.642;13.806;2022-09-02T08:06:51;25.80;99.90
36444;DHT22;24692;45.642;13.806;2022-09-02T08:09:17;26.00;99.90
36444;DHT22;24692;45.642;13.806;2022-09-02T08:11:45;27.20;99.90
36444;DHT22;24692;45.642;13.806;2022-09-02T08:14:14;27.90;99.90
36444;DHT22;24692;45.642;13.806;2022-09-02T08:16:43;28.50;99.90
36444;DHT22;24692;45.642;13.806;2022-09-02T08:19:10;29.10;99.90
36444;DHT22;24692;45.642;13.806;2022-09-02T08:21:36;28.60;99.90
36444;DHT22;24692;45.642;13.806;2022-09-02T08:24:02;28.30;99.90
36444;DHT22;24692;45.642;13.806;2022-09-02T08:26:28;29.60;99.90
36444;DHT22;24692;45.642;13.806;2022-09-02T08:28:54;30.90;99.90
36444;DHT22;24692;45.642;13.806;2022-09-02T08:31:20;31.30;99.90
36444;DHT22;24692;45.642;13.806;2022-09-02T08:33:46;31.90;99.90
36444;DHT22;24692;45.642;13.806;2022-09-02T08:36:12;32.60;99.90
36444;DHT22;24692;45.642;13.806;2022-09-02T08:38:40;32.40;99.90
36444;DHT22;24692;45.642;13.806;2022-09-02T08:41:19;31.60;99.90
36444;DHT22;24692;45.642;13.806;2022-09-02T08:43:46;31.70;99.90
36444;DHT22;24692;45.642;13.806;2022-09-02T08:46:15;31.70;99.90
36444;DHT22;24692;45.642;13.806;2022-09-02T08:48:50;32.20;99.90
36444;DHT22;24692;45.642;13.806;2022-09-02T08:51:42;32.70;99.90
36444;DHT22;24692;45.642;13.806;2022-09-02T08:54:47;32.90;99.90
36444;DHT22;24692;45.642;13.806;2022-09-02T08:57:15;32.70;99.90
36444;DHT22;24692;45.642;13.806;2022-09-02T08:59:42;32.90;99.90
36444;DHT22;24692;45.642;13.806;2022-09-02T09:02:50;32.70;99.90
36444;DHT22;24692;45.642;13.806;2022-09-02T09:10:58;32.60;99.90
36444;DHT22;24692;45.642;13.806;2022-09-02T09:16:41;31.90;99.90
36444;DHT22;24692;45.642;13.806;2022-09-02T09:19:15;32.10;99.90
36444;DHT22;24692;45.642;13.806;2022-09-02T09:21:42;32.00;99.90
36444;DHT22;24692;45.642;13.806;2022-09-02T09:26:54;33.20;99.90
36444;DHT22;24692;45.642;13.806;2022-09-02T09:29:21;33.50;99.90
36444;DHT22;24692;45.642;13.806;2022-09-02T09:31:56;33.80;98.80
36444;DHT22;24692;45.642;13.806;2022-09-02T09:34:22;33.40;99.70
36444;DHT22;24692;45.642;13.806;2022-09-02T09:36:51;32.90;99.60
36444;DHT22;24692;45.642;13.806;2022-09-02T09:39:22;33.40;98.90
36444;DHT22;24692;45.642;13.806;2022-09-02T09:41:50;34.00;99.10
36444;DHT22;24692;45.642;13.806;2022-09-02T09:44:46;34.60;98.40
36444;DHT22;24692;45.642;13.806;2022-09-02T09:47:19;33.90;97.30
36444;DHT22;24692;45.642;13.806;2022-09-02T09:49:49;32.80;98.40
36444;DHT22;24692;45.642;13.806;2022-09-02T09:52:28;33.50;97.60
36444;DHT22;24692;45.642;13.806;2022-09-02T09:57:31;32.90;98.30
36444;DHT22;24692;45.642;13.806;2022-09-02T09:59:57;32.80;98.80
36444;DHT22;24692;45.642;13.806;2022-09-02T10:02:27;32.80;99.00
36444;DHT22;24692;45.642;13.806;2022-09-02T10:05:17;33.10;99.00
36444;DHT22;24692;45.642;13.806;2022-09-02T10:07:53;33.40;98.60
36444;DHT22;24692;45.642;13.806;2022-09-02T10:10:21;34.60;98.50
36444;DHT22;24692;45.642;13.806;2022-09-02T10:12:50;34.10;96.20
36444;DHT22;24692;45.642;13.806;2022-09-02T10:15:29;33.60;97.10
36444;DHT22;24692;45.642;13.806;2022-09-02T10:20:49;32.90;97.50
36444;DHT22;24692;45.642;13.806;2022-09-02T10:23:25;32.40;97.60
36444;DHT22;24692;45.642;13.806;2022-09-02T10:34:02;33.20;96.90
36444;DHT22;24692;45.642;13.806;2022-09-02T10:37:01;32.60;97.10
36444;DHT22;24692;45.642;13.806;2022-09-02T10:42:24;32.30;98.80
36444;DHT22;24692;45.642;13.806;2022-09-02T10:48:16;32.50;97.90
36444;DHT22;24692;45.642;13.806;2022-09-02T10:50:59;32.50;97.70
36444;DHT22;24692;45.642;13.806;2022-09-02T10:56:16;33.60;96.90
36444;DHT22;24692;45.642;13.806;2022-09-02T10:58:44;33.20;96.40
36444;DHT22;24692;45.642;13.806;2022-09-02T11:01:24;33.20;97.80
36444;DHT22;24692;45.642;13.806;2022-09-02T11:06:30;33.90;96.80
36444;DHT22;24692;45.642;13.806;2022-09-02T11:08:57;34.70;96.50
36444;DHT22;24692;45.642;13.806;2022-09-02T11:11:32;34.80;95.80
36444;DHT22;24692;45.642;13.806;2022-09-02T11:16:53;33.40;96.70
36444;DHT22;24692;45.642;13.806;2022-09-02T11:19:37;33.10;97.80
36444;DHT22;24692;45.642;13.806;2022-09-02T11:22:27;33.60;97.30
36444;DHT22;24692;45.642;13.806;2022-09-02T11:24:55;33.80;96.80
36444;DHT22;24692;45.642;13.806;2022-09-02T11:30:19;32.80;97.50
36444;DHT22;24692;45.642;13.806;2022-09-02T11:32:54;32.50;97.30
36444;DHT22;24692;45.642;13.806;2022-09-02T11:35:34;32.10;97.80
36444;DHT22;24692;45.642;13.806;2022-09-02T11:43:46;32.50;97.70
36444;DHT22;24692;45.642;13.806;2022-09-02T11:54:41;33.80;96.50
36444;DHT22;24692;45.642;13.806;2022-09-02T11:57:15;32.80;97.00
36444;DHT22;24692;45.642;13.806;2022-09-02T12:02:49;32.10;97.40
36444;DHT22;24692;45.642;13.806;2022-09-02T12:08:11;32.10;98.00
36444;DHT22;24692;45.642;13.806;2022-09-02T12:13:41;31.20;97.70
36444;DHT22;24692;45.642;13.806;2022-09-02T12:21:22;32.30;98.20
36444;DHT22;24692;45.642;13.806;2022-09-02T12:26:29;33.10;96.80
36444;DHT22;24692;45.642;13.806;2022-09-02T12:31:53;33.60;97.00
36444;DHT22;24692;45.642;13.806;2022-09-02T12:45:02;33.60;95.30
36444;DHT22;24692;45.642;13.806;2022-09-02T12:53:31;34.60;94.80
36444;DHT22;24692;45.642;13.806;2022-09-02T12:58:37;34.00;94.70
36444;DHT22;24692;45.642;13.806;2022-09-02T13:12:58;35.90;93.90
36444;DHT22;24692;45.642;13.806;2022-09-02T13:29:53;37.00;91.20
36444;DHT22;24692;45.642;13.806;2022-09-02T13:32:23;37.00;91.50
36444;DHT22;24692;45.642;13.806;2022-09-02T13:34:51;37.40;91.40
36444;DHT22;24692;45.642;13.806;2022-09-02T13:39:57;36.20;91.70
36444;DHT22;24692;45.642;13.806;2022-09-02T13:42:28;36.20;92.00
36444;DHT22;24692;45.642;13.806;2022-09-02T13:45:12;36.30;92.60
36444;DHT22;24692;45.642;13.806;2022-09-02T13:47:44;36.40;92.50
36444;DHT22;24692;45.642;13.806;2022-09-02T13:50:16;37.00;92.00
36444;DHT22;24692;45.642;13.806;2022-09-02T13:52:45;37.00;91.00
36444;DHT22;24692;45.642;13.806;2022-09-02T13:55:14;36.60;92.00
36444;DHT22;24692;45.642;13.806;2022-09-02T13:58:02;35.70;92.30
36444;DHT22;24692;45.642;13.806;2022-09-02T14:00:35;35.90;93.10
36444;DHT22;24692;45.642;13.806;2022-09-02T14:03:15;36.10;92.40
36444;DHT22;24692;45.642;13.806;2022-09-02T14:05:44;35.70;92.20
36444;DHT22;24692;45.642;13.806;2022-09-02T14:08:13;35.60;92.60
36444;DHT22;24692;45.642;13.806;2022-09-02T14:10:40;35.10;92.80
36444;DHT22;24692;45.642;13.806;2022-09-02T14:13:07;34.60;92.60
36444;DHT22;24692;45.642;13.806;2022-09-02T14:15:34;34.80;92.80
36444;DHT22;24692;45.642;13.806;2022-09-02T14:18:12;34.90;92.60
36444;DHT22;24692;45.642;13.806;2022-09-02T14:21:02;35.50;92.90
36444;DHT22;24692;45.642;13.806;2022-09-02T14:23:37;36.00;92.40
36444;DHT22;24692;45.642;13.806;2022-09-02T14:26:04;36.30;92.30
36444;DHT22;24692;45.642;13.806;2022-09-02T14:28:32;36.40;92.20
36444;DHT22;24692;45.642;13.806;2022-09-02T14:31:07;36.50;91.40
36444;DHT22;24692;45.642;13.806;2022-09-02T14:33:45;36.40;91.90
36444;DHT22;24692;45.642;13.806;2022-09-02T14:41:17;35.80;91.90
36444;DHT22;24692;45.642;13.806;2022-09-02T14:43:55;35.90;91.90
36444;DHT22;24692;45.642;13.806;2022-09-02T14:49:09;34.30;92.20
36444;DHT22;24692;45.642;13.806;2022-09-02T14:51:52;33.60;92.80
36444;DHT22;24692;45.642;13.806;2022-09-02T14:54:44;33.70;93.30
36444;DHT22;24692;45.642;13.806;2022-09-02T14:57:31;34.50;93.00
36444;DHT22;24692;45.642;13.806;2022-09-02T15:00:09;35.00;92.50
36444;DHT22;24692;45.642;13.806;2022-09-02T15:02:36;35.30;92.40
36444;DHT22;24692;45.642;13.806;2022-09-02T15:05:06;35.80;91.90
36444;DHT22;24692;45.642;13.806;2022-09-02T15:07:33;35.80;92.10
36444;DHT22;24692;45.642;13.806;2022-09-02T15:09:58;35.50;92.10
36444;DHT22;24692;45.642;13.806;2022-09-02T15:12:37;35.50;91.40
36444;DHT22;24692;45.642;13.806;2022-09-02T15:15:03;35.40;91.80
36444;DHT22;24692;45.642;13.806;2022-09-02T15:17:29;35.40;91.70
36444;DHT22;24692;45.642;13.806;2022-09-02T15:19:55;35.20;92.00
36444;DHT22;24692;45.642;13.806;2022-09-02T15:22:21;34.70;91.80
36444;DHT22;24692;45.642;13.806;2022-09-02T15:24:46;34.40;91.60
36444;DHT22;24692;45.642;13.806;2022-09-02T15:27:14;33.60;92.50
36444;DHT22;24692;45.642;13.806;2022-09-02T15:29:40;33.70;92.80
36444;DHT22;24692;45.642;13.806;2022-09-02T15:32:06;34.00;92.50
36444;DHT22;24692;45.642;13.806;2022-09-02T15:34:32;33.80;92.60
36444;DHT22;24692;45.642;13.806;2022-09-02T15:36:59;33.80;92.50
36444;DHT22;24692;45.642;13.806;2022-09-02T15:39:25;33.80;92.80
36444;DHT22;24692;45.642;13.806;2022-09-02T15:41:52;33.20;92.90
36444;DHT22;24692;45.642;13.806;2022-09-02T15:44:20;33.30;93.40
36444;DHT22;24692;45.642;13.806;2022-09-02T15:46:45;33.20;93.50
36444;DHT22;24692;45.642;13.806;2022-09-02T15:49:13;33.20;93.20
36444;DHT22;24692;45.642;13.806;2022-09-02T15:51:42;33.10;93.20
36444;DHT22;24692;45.642;13.806;2022-09-02T15:54:11;33.10;93.30
36444;DHT22;24692;45.642;13.806;2022-09-02T15:56:39;32.90;93.50
36444;DHT22;24692;45.642;13.806;2022-09-02T15:59:16;32.70;93.70
36444;DHT22;24692;45.642;13.806;2022-09-02T16:01:44;31.80;94.30
36444;DHT22;24692;45.642;13.806;2022-09-02T16:04:11;31.70;95.00
36444;DHT22;24692;45.642;13.806;2022-09-02T16:06:39;31.90;95.10
36444;DHT22;24692;45.642;13.806;2022-09-02T16:09:07;31.90;94.60
36444;DHT22;24692;45.642;13.806;2022-09-02T16:11:35;32.00;94.80
36444;DHT22;24692;45.642;13.806;2022-09-02T16:14:01;31.90;95.20
36444;DHT22;24692;45.642;13.806;2022-09-02T16:16:27;31.30;95.10
36444;DHT22;24692;45.642;13.806;2022-09-02T16:18:53;31.20;95.40
36444;DHT22;24692;45.642;13.806;2022-09-02T16:21:20;31.10;95.40
36444;DHT22;24692;45.642;13.806;2022-09-02T16:23:46;30.70;95.90
36444;DHT22;24692;45.642;13.806;2022-09-02T16:26:14;30.80;95.80
36444;DHT22;24692;45.642;13.806;2022-09-02T16:28:43;30.00;96.40
36444;DHT22;24692;45.642;13.806;2022-09-02T16:31:10;29.30;97.20
36444;DHT22;24692;45.642;13.806;2022-09-02T16:33:37;29.40;97.90
36444;DHT22;24692;45.642;13.806;2022-09-02T16:36:04;29.50;97.60
36444;DHT22;24692;45.642;13.806;2022-09-02T16:38:30;29.50;97.30
36444;DHT22;24692;45.642;13.806;2022-09-02T16:40:57;29.40;97.30
36444;DHT22;24692;45.642;13.806;2022-09-02T16:43:23;29.20;97.50
36444;DHT22;24692;45.642;13.806;2022-09-02T16:45:49;29.00;98.20
36444;DHT22;24692;45.642;13.806;2022-09-02T16:48:21;28.80;98.30
36444;DHT22;24692;45.642;13.806;2022-09-02T16:50:49;28.40;98.50
36444;DHT22;24692;45.642;13.806;2022-09-02T16:53:16;28.50;98.70
36444;DHT22;24692;45.642;13.806;2022-09-02T16:55:44;28.00;98.90
36444;DHT22;24692;45.642;13.806;2022-09-02T16:58:12;27.80;99.20
36444;DHT22;24692;45.642;13.806;2022-09-02T17:00:40;27.70;99.50
36444;DHT22;24692;45.642;13.806;2022-09-02T17:03:08;27.50;99.80
36444;DHT22;24692;45.642;13.806;2022-09-02T17:05:34;27.60;99.90
36444;DHT22;24692;45.642;13.806;2022-09-02T17:08:00;27.40;99.90
36444;DHT22;24692;45.642;13.806;2022-09-02T17:10:31;27.00;99.90
36444;DHT22;24692;45.642;13.806;2022-09-02T17:12:58;26.70;99.90
36444;DHT22;24692;45.642;13.806;2022-09-02T17:15:25;26.40;99.90
36444;DHT22;24692;45.642;13.806;2022-09-02T17:17:51;26.30;99.90
36444;DHT22;24692;45.642;13.806;2022-09-02T17:20:17;26.10;99.90
36444;DHT22;24692;45.642;13.806;2022-09-02T17:22:42;25.80;99.90
36444;DHT22;24692;45.642;13.806;2022-09-02T17:25:09;25.70;99.90
36444;DHT22;24692;45.642;13.806;2022-09-02T17:27:35;25.60;99.90
36444;DHT22;24692;45.642;13.806;2022-09-02T17:30:03;25.50;99.90
36444;DHT22;24692;45.642;13.806;2022-09-02T17:32:29;25.40;99.90
36444;DHT22;24692;45.642;13.806;2022-09-02T17:34:55;25.40;99.90
36444;DHT22;24692;45.642;13.806;2022-09-02T17:37:21;25.30;99.90
36444;DHT22;24692;45.642;13.806;2022-09-02T17:39:49;25.20;99.90